createdAt,value
2023-05-10T00:00:00.391Z,1012.36
2023-05-10T00:00:09.746Z,1012.36
2023-05-10T00:00:19.316Z,1012.39
2023-05-10T00:00:28.546Z,1012.45
2023-05-10T00:00:47.568Z,1012.38
2023-05-10T00:00:56.955Z,1012.38
2023-05-10T00:01:06.357Z,1012.31
2023-05-10T00:01:15.803Z,1012.36
2023-05-10T00:01:25.204Z,1012.40
2023-05-10T00:01:34.605Z,1012.35
2023-05-10T00:01:54.404Z,1012.34
2023-05-10T00:02:03.845Z,1012.36
2023-05-10T00:02:13.246Z,1012.43
2023-05-10T00:02:22.607Z,1012.43
2023-05-10T00:02:32.209Z,1012.42
2023-05-10T00:02:41.435Z,1012.39
2023-05-10T00:03:00.378Z,1012.40
2023-05-10T00:03:09.614Z,1012.30
2023-05-10T00:03:19.017Z,1012.36
2023-05-10T00:03:28.429Z,1012.37
2023-05-10T00:03:37.846Z,1012.36
2023-05-10T00:03:47.248Z,1012.37
2023-05-10T00:04:06.057Z,1012.38
2023-05-10T00:04:15.455Z,1012.38
2023-05-10T00:04:24.865Z,1012.39
2023-05-10T00:04:34.295Z,1012.39
2023-05-10T00:04:43.696Z,1012.40
2023-05-10T00:04:53.099Z,1012.40
2023-05-10T00:05:12.935Z,1012.35
2023-05-10T00:05:22.446Z,1012.36
2023-05-10T00:05:31.889Z,1012.35
2023-05-10T00:05:41.306Z,1012.38
2023-05-10T00:05:50.725Z,1012.39
2023-05-10T00:06:00.144Z,1012.46
2023-05-10T00:06:18.936Z,1012.35
2023-05-10T00:06:28.338Z,1012.33
2023-05-10T00:06:37.753Z,1012.39
2023-05-10T00:06:47.158Z,1012.37
2023-05-10T00:06:56.578Z,1012.37
2023-05-10T00:07:06.014Z,1012.40
2023-05-10T00:07:24.819Z,1012.32
2023-05-10T00:07:34.205Z,1012.40
2023-05-10T00:07:43.606Z,1012.40
2023-05-10T00:07:52.986Z,1012.45
2023-05-10T00:08:02.370Z,1012.34
2023-05-10T00:08:11.754Z,1012.37
2023-05-10T00:08:30.797Z,1012.28
2023-05-10T00:08:40.173Z,1012.40
2023-05-10T00:08:49.554Z,1012.34
2023-05-10T00:08:58.964Z,1012.33
2023-05-10T00:09:08.365Z,1012.30
2023-05-10T00:09:17.751Z,1012.37
2023-05-10T00:09:36.563Z,1012.36
2023-05-10T00:09:45.978Z,1012.36
2023-05-10T00:09:55.394Z,1012.36
2023-05-10T00:10:04.778Z,1012.34
2023-05-10T00:10:14.330Z,1012.29
2023-05-10T00:10:23.596Z,1012.35
2023-05-10T00:10:42.376Z,1012.36
2023-05-10T00:10:51.784Z,1012.34
2023-05-10T00:11:01.185Z,1012.28
2023-05-10T00:11:10.577Z,1012.28
2023-05-10T00:11:21.609Z,1012.32
2023-05-10T00:11:29.343Z,1012.34
2023-05-10T00:11:48.132Z,1012.34
2023-05-10T00:11:57.528Z,1012.31
2023-05-10T00:12:06.937Z,1012.35
2023-05-10T00:12:16.340Z,1012.34
2023-05-10T00:12:25.758Z,1012.31
2023-05-10T00:12:35.115Z,1012.29
2023-05-10T00:12:53.927Z,1012.31
2023-05-10T00:13:03.374Z,1012.22
2023-05-10T00:13:12.786Z,1012.28
2023-05-10T00:13:22.221Z,1012.29
2023-05-10T00:13:31.607Z,1012.27
2023-05-10T00:13:40.951Z,1012.33
2023-05-10T00:13:59.786Z,1012.32
2023-05-10T00:14:09.206Z,1012.26
2023-05-10T00:14:18.621Z,1012.31
2023-05-10T00:14:28.010Z,1012.30
2023-05-10T00:14:37.398Z,1012.28
2023-05-10T00:14:46.783Z,1012.23
2023-05-10T00:15:05.558Z,1012.25
2023-05-10T00:15:14.952Z,1012.22
2023-05-10T00:15:25.396Z,1012.26
2023-05-10T00:15:34.794Z,1012.24
2023-05-10T00:15:44.163Z,1012.25
2023-05-10T00:15:53.554Z,1012.23
2023-05-10T00:16:12.457Z,1012.26
2023-05-10T00:16:21.842Z,1012.29
2023-05-10T00:16:31.277Z,1012.29
2023-05-10T00:16:40.657Z,1012.28
2023-05-10T00:16:50.122Z,1012.26
2023-05-10T00:16:59.575Z,1012.25
2023-05-10T00:17:18.292Z,1012.27
2023-05-10T00:17:27.958Z,1012.20
2023-05-10T00:17:37.396Z,1012.26
2023-05-10T00:17:46.753Z,1012.30
2023-05-10T00:17:56.132Z,1012.21
2023-05-10T00:18:05.483Z,1012.25
2023-05-10T00:18:24.277Z,1012.24
2023-05-10T00:18:33.686Z,1012.25
2023-05-10T00:18:43.330Z,1012.22
2023-05-10T00:18:52.709Z,1012.24
2023-05-10T00:19:02.143Z,1012.32
2023-05-10T00:19:11.564Z,1012.28
2023-05-10T00:19:30.350Z,1012.27
2023-05-10T00:19:39.752Z,1012.20
2023-05-10T00:19:49.164Z,1012.18
2023-05-10T00:19:58.535Z,1012.18
2023-05-10T00:20:07.980Z,1012.25
2023-05-10T00:20:17.743Z,1012.25
2023-05-10T00:20:36.203Z,1012.15
2023-05-10T00:20:45.593Z,1012.21
2023-05-10T00:20:54.973Z,1012.24
2023-05-10T00:21:04.378Z,1012.22
2023-05-10T00:21:13.749Z,1012.24
2023-05-10T00:21:23.137Z,1012.19
2023-05-10T00:21:41.904Z,1012.24
2023-05-10T00:21:51.346Z,1012.22
2023-05-10T00:22:00.731Z,1012.17
2023-05-10T00:22:10.138Z,1012.17
2023-05-10T00:22:19.520Z,1012.28
2023-05-10T00:22:28.910Z,1012.26
2023-05-10T00:22:47.696Z,1012.27
2023-05-10T00:22:57.071Z,1012.21
2023-05-10T00:23:06.740Z,1012.21
2023-05-10T00:23:16.146Z,1012.18
2023-05-10T00:23:25.539Z,1012.26
2023-05-10T00:23:34.929Z,1012.23
2023-05-10T00:23:53.744Z,1012.23
2023-05-10T00:24:03.149Z,1012.20
2023-05-10T00:24:12.536Z,1012.18
2023-05-10T00:24:21.948Z,1012.20
2023-05-10T00:24:31.334Z,1012.15
2023-05-10T00:24:40.776Z,1012.18
2023-05-10T00:24:59.601Z,1012.19
2023-05-10T00:25:08.995Z,1012.15
2023-05-10T00:25:18.383Z,1012.15
2023-05-10T00:25:27.768Z,1012.30
2023-05-10T00:25:37.162Z,1012.21
2023-05-10T00:25:46.548Z,1012.24
2023-05-10T00:26:05.401Z,1012.19
2023-05-10T00:26:14.801Z,1012.16
2023-05-10T00:26:24.182Z,1012.12
2023-05-10T00:26:33.603Z,1012.14
2023-05-10T00:26:43.014Z,1012.16
2023-05-10T00:26:52.394Z,1012.11
2023-05-10T00:27:11.164Z,1012.19
2023-05-10T00:27:20.575Z,1012.11
2023-05-10T00:27:29.955Z,1012.11
2023-05-10T00:27:39.335Z,1012.13
2023-05-10T00:27:48.831Z,1012.16
2023-05-10T00:27:58.162Z,1012.13
2023-05-10T00:28:16.919Z,1012.20
2023-05-10T00:28:26.293Z,1012.12
2023-05-10T00:28:35.712Z,1012.11
2023-05-10T00:28:45.133Z,1012.14
2023-05-10T00:28:54.524Z,1012.16
2023-05-10T00:29:04.022Z,1012.12
2023-05-10T00:29:22.827Z,1012.16
2023-05-10T00:29:32.219Z,1012.15
2023-05-10T00:29:41.606Z,1012.12
2023-05-10T00:29:51.002Z,1012.08
2023-05-10T00:30:00.392Z,1012.13
2023-05-10T00:30:09.801Z,1012.12
2023-05-10T00:30:28.576Z,1012.09
2023-05-10T00:30:39.023Z,1012.15
2023-05-10T00:30:48.484Z,1012.10
2023-05-10T00:30:57.894Z,1012.08
2023-05-10T00:31:07.278Z,1012.15
2023-05-10T00:31:16.691Z,1012.17
2023-05-10T00:31:35.495Z,1012.15
2023-05-10T00:31:44.893Z,1012.05
2023-05-10T00:31:54.281Z,1012.11
2023-05-10T00:32:03.677Z,1012.18
2023-05-10T00:32:13.096Z,1012.10
2023-05-10T00:32:22.470Z,1012.11
2023-05-10T00:32:41.238Z,1012.08
2023-05-10T00:32:50.720Z,1012.10
2023-05-10T00:33:00.069Z,1012.15
2023-05-10T00:33:09.412Z,1012.12
2023-05-10T00:33:18.772Z,1012.12
2023-05-10T00:33:28.160Z,1012.19
2023-05-10T00:33:46.936Z,1012.12
2023-05-10T00:33:56.333Z,1012.12
2023-05-10T00:34:05.759Z,1012.13
2023-05-10T00:34:15.129Z,1012.12
2023-05-10T00:34:24.520Z,1012.05
2023-05-10T00:34:33.918Z,1012.15
2023-05-10T00:34:52.707Z,1012.09
2023-05-10T00:35:02.107Z,1012.16
2023-05-10T00:35:11.541Z,1012.23
2023-05-10T00:35:20.945Z,1012.14
2023-05-10T00:35:30.361Z,1012.19
2023-05-10T00:35:39.770Z,1012.11
2023-05-10T00:35:58.552Z,1012.17
2023-05-10T00:36:07.979Z,1012.15
2023-05-10T00:36:17.414Z,1012.17
2023-05-10T00:36:26.820Z,1012.14
2023-05-10T00:36:36.205Z,1012.11
2023-05-10T00:36:45.612Z,1012.13
2023-05-10T00:37:04.404Z,1012.17
2023-05-10T00:37:13.782Z,1012.09
2023-05-10T00:37:23.178Z,1012.13
2023-05-10T00:37:32.580Z,1012.12
2023-05-10T00:37:41.969Z,1012.17
2023-05-10T00:37:51.364Z,1012.12
2023-05-10T00:38:10.153Z,1012.10
2023-05-10T00:38:19.540Z,1012.13
2023-05-10T00:38:28.924Z,1012.11
2023-05-10T00:38:38.308Z,1012.14
2023-05-10T00:38:47.705Z,1012.11
2023-05-10T00:38:57.076Z,1012.06
2023-05-10T00:39:15.871Z,1012.17
2023-05-10T00:39:25.282Z,1012.12
2023-05-10T00:39:34.667Z,1012.10
2023-05-10T00:39:44.087Z,1012.19
2023-05-10T00:39:53.467Z,1012.14
2023-05-10T00:40:02.856Z,1012.19
2023-05-10T00:40:21.677Z,1012.09
2023-05-10T00:40:31.048Z,1012.11
2023-05-10T00:40:40.432Z,1012.13
2023-05-10T00:40:49.817Z,1012.13
2023-05-10T00:40:59.203Z,1012.11
2023-05-10T00:41:08.608Z,1012.08
2023-05-10T00:41:27.409Z,1012.13
2023-05-10T00:41:37.600Z,1012.14
2023-05-10T00:41:46.984Z,1012.11
2023-05-10T00:41:56.380Z,1012.13
2023-05-10T00:42:05.844Z,1012.10
2023-05-10T00:42:15.272Z,1012.07
2023-05-10T00:42:34.061Z,1012.17
2023-05-10T00:42:43.455Z,1012.11
2023-05-10T00:42:52.855Z,1012.03
2023-05-10T00:43:02.254Z,1012.10
2023-05-10T00:43:11.643Z,1012.11
2023-05-10T00:43:21.027Z,1012.08
2023-05-10T00:43:39.819Z,1012.03
2023-05-10T00:43:49.317Z,1012.09
2023-05-10T00:43:58.672Z,1012.13
2023-05-10T00:44:08.133Z,1012.06
2023-05-10T00:44:17.538Z,1012.07
2023-05-10T00:44:26.922Z,1012.13
2023-05-10T00:44:45.723Z,1012.11
2023-05-10T00:44:55.145Z,1012.09
2023-05-10T00:45:04.557Z,1012.07
2023-05-10T00:45:13.960Z,1012.11
2023-05-10T00:45:23.364Z,1012.09
2023-05-10T00:45:32.748Z,1012.11
2023-05-10T00:45:52.709Z,1012.12
2023-05-10T00:46:02.066Z,1012.07
2023-05-10T00:46:11.517Z,1012.12
2023-05-10T00:46:20.931Z,1012.18
2023-05-10T00:46:30.388Z,1012.17
2023-05-10T00:46:39.639Z,1012.12
2023-05-10T00:46:58.435Z,1012.11
2023-05-10T00:47:07.780Z,1012.05
2023-05-10T00:47:17.171Z,1012.06
2023-05-10T00:47:26.630Z,1012.02
2023-05-10T00:47:35.989Z,1012.04
2023-05-10T00:47:45.408Z,1012.12
2023-05-10T00:48:04.216Z,1012.08
2023-05-10T00:48:13.590Z,1012.06
2023-05-10T00:48:22.959Z,1012.07
2023-05-10T00:48:32.350Z,1012.04
2023-05-10T00:48:41.745Z,1012.08
2023-05-10T00:48:51.143Z,1012.07
2023-05-10T00:49:09.952Z,1012.11
2023-05-10T00:49:19.341Z,1012.06
2023-05-10T00:49:28.728Z,1012.08
2023-05-10T00:49:38.110Z,1012.06
2023-05-10T00:49:47.486Z,1012.03
2023-05-10T00:49:56.905Z,1012.04
2023-05-10T00:50:15.970Z,1012.08
2023-05-10T00:50:25.072Z,1012.08
2023-05-10T00:50:34.502Z,1012.03
2023-05-10T00:50:43.913Z,1012.08
2023-05-10T00:50:53.284Z,1011.99
2023-05-10T00:51:02.690Z,1012.07
2023-05-10T00:51:21.455Z,1012.01
2023-05-10T00:51:30.869Z,1012.03
2023-05-10T00:51:40.277Z,1012.10
2023-05-10T00:51:49.664Z,1012.00
2023-05-10T00:51:59.045Z,1011.97
2023-05-10T00:52:08.423Z,1012.06
2023-05-10T00:52:27.244Z,1012.06
2023-05-10T00:52:36.636Z,1012.08
2023-05-10T00:52:46.005Z,1012.04
2023-05-10T00:52:55.376Z,1012.10
2023-05-10T00:53:04.852Z,1012.06
2023-05-10T00:53:14.222Z,1012.06
2023-05-10T00:53:33.003Z,1012.02
2023-05-10T00:53:42.410Z,1012.03
2023-05-10T00:53:51.852Z,1011.99
2023-05-10T00:54:01.265Z,1012.00
2023-05-10T00:54:10.687Z,1012.04
2023-05-10T00:54:20.114Z,1012.01
2023-05-10T00:54:38.908Z,1012.03
2023-05-10T00:54:48.301Z,1011.97
2023-05-10T00:54:57.707Z,1012.06
2023-05-10T00:55:07.090Z,1012.03
2023-05-10T00:55:16.479Z,1012.04
2023-05-10T00:55:25.864Z,1011.98
2023-05-10T00:55:44.651Z,1012.00
2023-05-10T00:55:54.044Z,1011.96
2023-05-10T00:56:03.438Z,1012.03
2023-05-10T00:56:12.847Z,1012.01
2023-05-10T00:56:23.260Z,1012.03
2023-05-10T00:56:32.688Z,1012.02
2023-05-10T00:56:51.500Z,1011.96
2023-05-10T00:57:00.871Z,1012.01
2023-05-10T00:57:10.263Z,1011.97
2023-05-10T00:57:19.642Z,1011.97
2023-05-10T00:57:29.061Z,1012.01
2023-05-10T00:57:38.464Z,1011.98
2023-05-10T00:57:57.264Z,1011.98
2023-05-10T00:58:06.670Z,1011.98
2023-05-10T00:58:16.039Z,1012.02
2023-05-10T00:58:25.456Z,1011.96
2023-05-10T00:58:34.858Z,1011.93
2023-05-10T00:58:44.248Z,1011.95
2023-05-10T00:59:03.109Z,1011.92
2023-05-10T00:59:12.527Z,1011.96
2023-05-10T00:59:21.923Z,1012.03
2023-05-10T00:59:31.346Z,1012.10
2023-05-10T00:59:40.749Z,1012.06
2023-05-10T00:59:50.154Z,1012.06
2023-05-10T01:00:08.957Z,1011.99
2023-05-10T01:00:18.409Z,1012.01
2023-05-10T01:00:27.752Z,1012.06
2023-05-10T01:00:37.183Z,1012.06
2023-05-10T01:00:46.606Z,1012.00
2023-05-10T01:00:56.001Z,1012.10
2023-05-10T01:01:14.804Z,1012.06
2023-05-10T01:01:24.196Z,1012.02
2023-05-10T01:01:33.616Z,1012.08
2023-05-10T01:01:43.006Z,1012.04
2023-05-10T01:01:52.423Z,1012.08
2023-05-10T01:02:01.835Z,1012.07
2023-05-10T01:02:20.613Z,1012.12
2023-05-10T01:02:30.091Z,1012.12
2023-05-10T01:02:39.509Z,1012.04
2023-05-10T01:02:48.942Z,1012.02
2023-05-10T01:02:58.338Z,1011.99
2023-05-10T01:03:07.835Z,1012.06
2023-05-10T01:03:26.577Z,1012.10
2023-05-10T01:03:35.957Z,1012.00
2023-05-10T01:03:45.301Z,1012.06
2023-05-10T01:03:54.687Z,1012.05
2023-05-10T01:04:04.118Z,1012.11
2023-05-10T01:04:13.516Z,1012.10
2023-05-10T01:04:32.335Z,1012.05
2023-05-10T01:04:41.807Z,1012.08
2023-05-10T01:04:51.153Z,1012.10
2023-05-10T01:05:00.603Z,1012.10
2023-05-10T01:05:09.930Z,1012.12
2023-05-10T01:05:19.408Z,1012.06
2023-05-10T01:05:38.116Z,1012.06
2023-05-10T01:05:47.532Z,1012.01
2023-05-10T01:05:56.913Z,1012.08
2023-05-10T01:06:06.322Z,1012.06
2023-05-10T01:06:15.714Z,1012.00
2023-05-10T01:06:25.105Z,1012.08
2023-05-10T01:06:43.889Z,1012.09
2023-05-10T01:06:53.329Z,1012.17
2023-05-10T01:07:02.744Z,1012.04
2023-05-10T01:07:12.174Z,1012.10
2023-05-10T01:07:21.589Z,1011.97
2023-05-10T01:07:30.988Z,1012.06
2023-05-10T01:07:49.793Z,1012.06
2023-05-10T01:07:59.201Z,1012.10
2023-05-10T01:08:08.591Z,1012.00
2023-05-10T01:08:17.985Z,1012.02
2023-05-10T01:08:27.398Z,1012.00
2023-05-10T01:08:36.808Z,1012.08
2023-05-10T01:08:55.666Z,1012.08
2023-05-10T01:09:05.082Z,1011.97
2023-05-10T01:09:14.637Z,1012.03
2023-05-10T01:09:24.032Z,1012.01
2023-05-10T01:09:33.452Z,1011.96
2023-05-10T01:09:42.868Z,1012.00
2023-05-10T01:10:01.714Z,1012.05
2023-05-10T01:10:11.104Z,1012.04
2023-05-10T01:10:20.496Z,1012.04
2023-05-10T01:10:29.900Z,1011.99
2023-05-10T01:10:39.291Z,1012.03
2023-05-10T01:10:48.767Z,1012.01
2023-05-10T01:11:07.620Z,1012.04
2023-05-10T01:11:17.007Z,1012.02
2023-05-10T01:11:26.404Z,1011.97
2023-05-10T01:11:35.806Z,1012.03
2023-05-10T01:11:45.203Z,1012.01
2023-05-10T01:11:54.624Z,1011.98
2023-05-10T01:12:13.403Z,1011.95
2023-05-10T01:12:22.810Z,1012.05
2023-05-10T01:12:32.189Z,1012.03
2023-05-10T01:12:41.854Z,1012.01
2023-05-10T01:12:51.107Z,1011.99
2023-05-10T01:13:00.454Z,1012.07
2023-05-10T01:13:19.285Z,1011.95
2023-05-10T01:13:28.629Z,1011.96
2023-05-10T01:13:38.011Z,1011.96
2023-05-10T01:13:47.418Z,1012.05
2023-05-10T01:13:56.822Z,1011.98
2023-05-10T01:14:06.274Z,1011.96
2023-05-10T01:14:27.265Z,1012.12
2023-05-10T01:14:36.689Z,1012.08
2023-05-10T01:14:46.106Z,1012.06
2023-05-10T01:14:55.502Z,1012.11
2023-05-10T01:15:04.910Z,1012.12
2023-05-10T01:15:14.376Z,1012.01
2023-05-10T01:15:33.183Z,1012.04
2023-05-10T01:15:42.633Z,1012.00
2023-05-10T01:15:52.056Z,1012.01
2023-05-10T01:16:01.529Z,1012.09
2023-05-10T01:16:10.953Z,1012.12
2023-05-10T01:16:20.315Z,1012.05
2023-05-10T01:16:39.099Z,1012.05
2023-05-10T01:16:48.502Z,1012.04
2023-05-10T01:16:57.880Z,1012.05
2023-05-10T01:17:07.302Z,1011.99
2023-05-10T01:17:16.698Z,1012.04
2023-05-10T01:17:26.160Z,1012.03
2023-05-10T01:17:44.901Z,1012.10
2023-05-10T01:17:54.293Z,1012.02
2023-05-10T01:18:03.756Z,1012.06
2023-05-10T01:18:13.130Z,1012.02
2023-05-10T01:18:22.527Z,1012.04
2023-05-10T01:18:31.937Z,1012.08
2023-05-10T01:18:50.782Z,1012.03
2023-05-10T01:19:00.207Z,1012.06
2023-05-10T01:19:09.616Z,1012.02
2023-05-10T01:19:19.028Z,1012.06
2023-05-10T01:19:28.399Z,1012.06
2023-05-10T01:19:37.813Z,1011.98
2023-05-10T01:19:56.617Z,1011.92
2023-05-10T01:20:06.001Z,1011.97
2023-05-10T01:20:15.641Z,1012.04
2023-05-10T01:20:24.888Z,1011.99
2023-05-10T01:20:34.284Z,1011.92
2023-05-10T01:20:43.677Z,1011.97
2023-05-10T01:21:02.500Z,1012.01
2023-05-10T01:21:11.970Z,1011.97
2023-05-10T01:21:21.371Z,1011.93
2023-05-10T01:21:30.770Z,1011.98
2023-05-10T01:21:40.158Z,1012.02
2023-05-10T01:21:49.559Z,1011.93
2023-05-10T01:22:08.412Z,1011.97
2023-05-10T01:22:17.834Z,1012.06
2023-05-10T01:22:27.207Z,1011.99
2023-05-10T01:22:36.600Z,1012.03
2023-05-10T01:22:46.013Z,1011.99
2023-05-10T01:22:55.383Z,1011.99
2023-05-10T01:23:14.188Z,1011.95
2023-05-10T01:23:23.628Z,1011.98
2023-05-10T01:23:33.040Z,1012.04
2023-05-10T01:23:42.415Z,1011.98
2023-05-10T01:23:51.817Z,1012.02
2023-05-10T01:24:01.205Z,1011.97
2023-05-10T01:24:20.049Z,1012.05
2023-05-10T01:24:29.419Z,1011.99
2023-05-10T01:24:38.851Z,1011.95
2023-05-10T01:24:48.236Z,1011.97
2023-05-10T01:24:57.633Z,1011.92
2023-05-10T01:25:07.038Z,1011.98
2023-05-10T01:25:25.838Z,1012.00
2023-05-10T01:25:35.232Z,1012.00
2023-05-10T01:25:44.638Z,1011.98
2023-05-10T01:25:54.085Z,1011.99
2023-05-10T01:26:03.492Z,1012.04
2023-05-10T01:26:12.900Z,1011.95
2023-05-10T01:26:31.732Z,1012.00
2023-05-10T01:26:41.132Z,1011.97
2023-05-10T01:26:50.552Z,1011.97
2023-05-10T01:26:59.973Z,1011.96
2023-05-10T01:27:09.365Z,1011.96
2023-05-10T01:27:18.784Z,1011.92
2023-05-10T01:27:37.597Z,1011.92
2023-05-10T01:27:47.017Z,1011.98
2023-05-10T01:27:56.401Z,1011.95
2023-05-10T01:28:05.793Z,1012.02
2023-05-10T01:28:15.206Z,1011.99
2023-05-10T01:28:24.606Z,1011.98
2023-05-10T01:28:43.394Z,1012.03
2023-05-10T01:28:52.805Z,1011.95
2023-05-10T01:29:02.227Z,1011.97
2023-05-10T01:29:11.620Z,1012.00
2023-05-10T01:29:25.462Z,1011.97
2023-05-10T01:29:34.878Z,1011.98
2023-05-10T01:29:44.260Z,1012.03
2023-05-10T01:30:09.246Z,1012.09
2023-05-10T01:30:14.631Z,1012.02
2023-05-10T01:30:21.716Z,1012.08
2023-05-10T01:30:31.820Z,1011.96
2023-05-10T01:30:41.494Z,1011.92
2023-05-10T01:30:50.896Z,1011.84
2023-05-10T01:31:00.318Z,1011.91
2023-05-10T01:31:09.678Z,1011.97
2023-05-10T01:31:19.088Z,1011.93
2023-05-10T01:31:37.903Z,1011.98
2023-05-10T01:31:47.361Z,1011.99
2023-05-10T01:31:56.669Z,1011.93
2023-05-10T01:32:06.073Z,1012.00
2023-05-10T01:32:15.625Z,1012.00
2023-05-10T01:32:24.889Z,1011.92
2023-05-10T01:32:43.738Z,1011.89
2023-05-10T01:32:53.116Z,1011.94
2023-05-10T01:33:02.532Z,1011.94
2023-05-10T01:33:11.873Z,1011.92
2023-05-10T01:33:21.317Z,1011.93
2023-05-10T01:33:30.713Z,1011.84
2023-05-10T01:33:49.496Z,1012.01
2023-05-10T01:33:58.964Z,1011.97
2023-05-10T01:34:08.359Z,1011.93
2023-05-10T01:34:17.780Z,1011.93
2023-05-10T01:34:27.195Z,1011.98
2023-05-10T01:34:36.596Z,1011.95
2023-05-10T01:34:55.408Z,1011.97
2023-05-10T01:35:04.852Z,1011.96
2023-05-10T01:35:14.232Z,1011.93
2023-05-10T01:35:23.625Z,1011.91
2023-05-10T01:35:33.046Z,1011.94
2023-05-10T01:35:42.422Z,1011.95
2023-05-10T01:36:01.219Z,1011.96
2023-05-10T01:36:10.596Z,1011.96
2023-05-10T01:36:19.984Z,1011.99
2023-05-10T01:36:29.378Z,1011.89
2023-05-10T01:36:38.779Z,1011.91
2023-05-10T01:36:48.174Z,1011.96
2023-05-10T01:37:07.977Z,1012.00
2023-05-10T01:37:17.390Z,1011.89
2023-05-10T01:37:26.776Z,1011.83
2023-05-10T01:37:36.173Z,1011.85
2023-05-10T01:37:45.556Z,1011.95
2023-05-10T01:37:54.968Z,1011.91
2023-05-10T01:38:13.783Z,1011.95
2023-05-10T01:38:23.244Z,1011.92
2023-05-10T01:38:32.678Z,1011.87
2023-05-10T01:38:42.089Z,1011.93
2023-05-10T01:38:51.540Z,1011.92
2023-05-10T01:39:00.932Z,1011.93
2023-05-10T01:39:19.723Z,1011.90
2023-05-10T01:39:29.145Z,1012.00
2023-05-10T01:39:38.513Z,1011.90
2023-05-10T01:39:47.880Z,1011.86
2023-05-10T01:39:57.257Z,1011.81
2023-05-10T01:40:06.640Z,1011.89
2023-05-10T01:40:25.416Z,1011.86
2023-05-10T01:40:34.787Z,1011.81
2023-05-10T01:40:45.224Z,1011.87
2023-05-10T01:40:54.603Z,1011.80
2023-05-10T01:41:03.995Z,1011.85
2023-05-10T01:41:13.376Z,1011.89
2023-05-10T01:41:32.172Z,1011.86
2023-05-10T01:41:41.612Z,1011.78
2023-05-10T01:41:51.002Z,1011.84
2023-05-10T01:42:00.388Z,1011.84
2023-05-10T01:42:10.017Z,1011.80
2023-05-10T01:42:19.413Z,1011.81
2023-05-10T01:42:38.188Z,1011.76
2023-05-10T01:42:47.574Z,1011.82
2023-05-10T01:42:56.982Z,1011.77
2023-05-10T01:43:06.443Z,1011.79
2023-05-10T01:43:15.805Z,1011.81
2023-05-10T01:43:25.209Z,1011.76
2023-05-10T01:43:44.025Z,1011.76
2023-05-10T01:43:53.405Z,1011.80
2023-05-10T01:44:02.814Z,1011.74
2023-05-10T01:44:12.201Z,1011.73
2023-05-10T01:44:21.596Z,1011.82
2023-05-10T01:44:31.009Z,1011.83
2023-05-10T01:44:49.791Z,1011.80
2023-05-10T01:44:59.191Z,1011.75
2023-05-10T01:45:08.625Z,1011.70
2023-05-10T01:45:18.030Z,1011.71
2023-05-10T01:45:27.428Z,1011.80
2023-05-10T01:45:36.808Z,1011.74
2023-05-10T01:45:55.586Z,1011.75
2023-05-10T01:46:05.000Z,1011.86
2023-05-10T01:46:14.422Z,1011.73
2023-05-10T01:46:23.833Z,1011.80
2023-05-10T01:46:33.245Z,1011.74
2023-05-10T01:46:42.693Z,1011.73
2023-05-10T01:47:01.478Z,1011.74
2023-05-10T01:47:10.828Z,1011.79
2023-05-10T01:47:20.340Z,1011.69
2023-05-10T01:47:29.621Z,1011.75
2023-05-10T01:47:39.032Z,1011.73
2023-05-10T01:47:48.453Z,1011.77
2023-05-10T01:48:07.242Z,1011.72
2023-05-10T01:48:16.636Z,1011.78
2023-05-10T01:48:26.038Z,1011.75
2023-05-10T01:48:35.430Z,1011.74
2023-05-10T01:48:44.829Z,1011.78
2023-05-10T01:48:54.223Z,1011.73
2023-05-10T01:49:13.020Z,1011.74
2023-05-10T01:49:22.415Z,1011.77
2023-05-10T01:49:31.835Z,1011.81
2023-05-10T01:49:41.190Z,1011.76
2023-05-10T01:49:50.579Z,1011.75
2023-05-10T01:49:59.983Z,1011.79
2023-05-10T01:50:19.054Z,1011.81
2023-05-10T01:50:28.136Z,1011.78
2023-05-10T01:50:37.513Z,1011.79
2023-05-10T01:50:46.927Z,1011.71
2023-05-10T01:50:56.329Z,1011.75
2023-05-10T01:51:05.747Z,1011.74
2023-05-10T01:51:24.544Z,1011.80
2023-05-10T01:51:33.904Z,1011.81
2023-05-10T01:51:43.305Z,1011.75
2023-05-10T01:51:52.685Z,1011.76
2023-05-10T01:52:02.095Z,1011.79
2023-05-10T01:52:11.521Z,1011.78
2023-05-10T01:52:30.304Z,1011.74
2023-05-10T01:52:39.709Z,1011.77
2023-05-10T01:52:49.140Z,1011.78
2023-05-10T01:52:58.530Z,1011.77
2023-05-10T01:53:07.939Z,1011.74
2023-05-10T01:53:17.327Z,1011.77
2023-05-10T01:53:36.106Z,1011.74
2023-05-10T01:53:45.509Z,1011.71
2023-05-10T01:53:54.943Z,1011.77
2023-05-10T01:54:04.336Z,1011.77
2023-05-10T01:54:13.726Z,1011.79
2023-05-10T01:54:23.108Z,1011.79
2023-05-10T01:54:41.923Z,1011.72
2023-05-10T01:54:51.323Z,1011.76
2023-05-10T01:55:00.762Z,1011.69
2023-05-10T01:55:10.169Z,1011.78
2023-05-10T01:55:19.534Z,1011.78
2023-05-10T01:55:28.930Z,1011.73
2023-05-10T01:55:47.715Z,1011.70
2023-05-10T01:55:57.092Z,1011.69
2023-05-10T01:56:06.490Z,1011.72
2023-05-10T01:56:15.883Z,1011.78
2023-05-10T01:56:25.263Z,1011.76
2023-05-10T01:56:34.643Z,1011.76
2023-05-10T01:56:53.437Z,1011.81
2023-05-10T01:57:02.847Z,1011.73
2023-05-10T01:57:12.264Z,1011.73
2023-05-10T01:57:21.667Z,1011.72
2023-05-10T01:57:31.045Z,1011.78
2023-05-10T01:57:40.432Z,1011.73
2023-05-10T01:57:59.232Z,1011.83
2023-05-10T01:58:08.633Z,1011.72
2023-05-10T01:58:18.015Z,1011.78
2023-05-10T01:58:27.405Z,1011.79
2023-05-10T01:58:36.824Z,1011.71
2023-05-10T01:58:46.211Z,1011.76
2023-05-10T01:59:05.012Z,1011.83
2023-05-10T01:59:14.385Z,1011.79
2023-05-10T01:59:23.798Z,1011.83
2023-05-10T01:59:33.384Z,1011.78
2023-05-10T01:59:42.834Z,1011.72
2023-05-10T01:59:52.202Z,1011.75
2023-05-10T02:00:10.989Z,1011.78
2023-05-10T02:00:20.385Z,1011.76
2023-05-10T02:00:29.835Z,1011.82
2023-05-10T02:00:39.329Z,1011.83
2023-05-10T02:00:48.678Z,1011.73
2023-05-10T02:00:58.060Z,1011.78
2023-05-10T02:01:16.846Z,1011.75
2023-05-10T02:01:26.205Z,1011.81
2023-05-10T02:01:35.618Z,1011.76
2023-05-10T02:01:45.002Z,1011.80
2023-05-10T02:01:54.376Z,1011.77
2023-05-10T02:02:03.800Z,1011.72
2023-05-10T02:02:22.655Z,1011.73
2023-05-10T02:02:32.275Z,1011.75
2023-05-10T02:02:41.736Z,1011.79
2023-05-10T02:02:51.122Z,1011.78
2023-05-10T02:03:00.522Z,1011.73
2023-05-10T02:03:10.004Z,1011.78
2023-05-10T02:03:28.677Z,1011.79
2023-05-10T02:03:38.108Z,1011.80
2023-05-10T02:03:47.557Z,1011.73
2023-05-10T02:03:56.932Z,1011.70
2023-05-10T02:04:06.430Z,1011.75
2023-05-10T02:04:15.712Z,1011.81
2023-05-10T02:04:34.521Z,1011.84
2023-05-10T02:04:43.927Z,1011.74
2023-05-10T02:04:53.321Z,1011.74
2023-05-10T02:05:02.738Z,1011.78
2023-05-10T02:05:12.138Z,1011.77
2023-05-10T02:05:21.590Z,1011.74
2023-05-10T02:05:40.389Z,1011.81
2023-05-10T02:05:49.815Z,1011.91
2023-05-10T02:05:59.209Z,1011.79
2023-05-10T02:06:08.610Z,1011.77
2023-05-10T02:06:18.004Z,1011.77
2023-05-10T02:06:27.397Z,1011.80
2023-05-10T02:06:46.203Z,1011.77
2023-05-10T02:06:55.590Z,1011.77
2023-05-10T02:07:04.964Z,1011.75
2023-05-10T02:07:14.384Z,1011.71
2023-05-10T02:07:23.770Z,1011.76
2023-05-10T02:07:33.151Z,1011.76
2023-05-10T02:07:51.921Z,1011.80
2023-05-10T02:08:01.331Z,1011.73
2023-05-10T02:08:10.725Z,1011.74
2023-05-10T02:08:20.140Z,1011.73
2023-05-10T02:08:29.489Z,1011.76
2023-05-10T02:08:38.901Z,1011.72
2023-05-10T02:08:57.701Z,1011.69
2023-05-10T02:09:07.083Z,1011.81
2023-05-10T02:09:16.476Z,1011.82
2023-05-10T02:09:25.861Z,1011.80
2023-05-10T02:09:35.285Z,1011.78
2023-05-10T02:09:44.707Z,1011.79
2023-05-10T02:10:03.501Z,1011.71
2023-05-10T02:10:12.932Z,1011.68
2023-05-10T02:10:22.276Z,1011.85
2023-05-10T02:10:32.251Z,1011.71
2023-05-10T02:10:41.605Z,1011.72
2023-05-10T02:10:51.012Z,1011.78
2023-05-10T02:11:09.821Z,1011.81
2023-05-10T02:11:19.215Z,1011.74
2023-05-10T02:11:28.611Z,1011.71
2023-05-10T02:11:38.025Z,1011.78
2023-05-10T02:11:47.395Z,1011.69
2023-05-10T02:11:56.814Z,1011.72
2023-05-10T02:12:15.609Z,1011.77
2023-05-10T02:12:25.014Z,1011.70
2023-05-10T02:12:34.419Z,1011.78
2023-05-10T02:12:43.891Z,1011.70